Time;durP1;ratioP1;P1;durP2;ratioP2;P2;SDS_P1;SDS_P2;PMS_P1;PMS_P2;Temp;Humidity;BMP_temperature;BMP_pressure;BME280_temperature;BME280_humidity;BME280_pressure;Samples;Min_cycle;Max_cycle;Signal;HPM_P1;HPM_P2
2022/07/30 00:01:49;;;;;;;5.32;2.00;;;;;;;28.88;33.92;98741.03;4965048;28;20113;-84
2022/07/30 00:04:14;;;;;;;3.10;1.88;;;;;;;28.86;34.03;98743.09;4980715;28;20054;-85
2022/07/30 00:06:40;;;;;;;3.75;2.03;;;;;;;28.82;34.26;98732.03;4964372;28;20033;-89
2022/07/30 00:09:05;;;;;;;4.50;2.30;;;;;;;28.82;34.47;98734.72;4964510;28;20184;-81
2022/07/30 00:11:31;;;;;;;4.05;2.03;;;;;;;28.78;34.44;98727.34;4980342;28;20026;-83
2022/07/30 00:13:56;;;;;;;5.90;2.22;;;;;;;28.80;34.76;98733.34;4979842;28;20108;-83
2022/07/30 00:16:22;;;;;;;6.10;2.25;;;;;;;28.80;34.87;98738.72;4964593;28;20504;-84
2022/07/30 00:18:47;;;;;;;4.88;2.00;;;;;;;28.79;34.75;98743.25;4964441;28;20521;-84
2022/07/30 00:21:13;;;;;;;4.65;2.00;;;;;;;28.78;34.74;98738.09;4996540;28;20037;-85
2022/07/30 00:23:39;;;;;;;4.13;2.13;;;;;;;28.78;34.87;98735.41;4980741;28;20029;-84
2022/07/30 00:26:04;;;;;;;5.13;2.00;;;;;;;28.78;35.11;98738.94;4963889;28;20030;-84
2022/07/30 00:28:30;;;;;;;4.35;2.15;;;;;;;28.77;35.20;98749.91;4963436;28;20038;-84
2022/07/30 00:30:55;;;;;;;4.38;1.90;;;;;;;28.74;35.42;98735.09;4980290;28;20045;-83
2022/07/30 00:33:21;;;;;;;3.15;1.80;;;;;;;28.68;35.43;98723.41;4978861;28;20428;-83
2022/07/30 00:35:46;;;;;;;4.90;2.13;;;;;;;28.67;35.57;98734.38;4964070;28;20057;-77
2022/07/30 00:38:12;;;;;;;4.65;1.80;;;;;;;28.69;35.62;98737.66;4996737;28;20121;-83
2022/07/30 00:40:37;;;;;;;3.33;1.80;;;;;;;28.65;35.50;98737.28;4980525;28;20456;-84
2022/07/30 00:43:03;;;;;;;8.30;1.90;;;;;;;28.64;35.71;98738.38;4961225;28;20076;-84
2022/07/30 00:45:28;;;;;;;7.35;2.30;;;;;;;28.64;35.89;98738.38;4964011;28;20057;-82
2022/07/30 00:47:54;;;;;;;5.30;2.17;;;;;;;28.62;35.88;98742.31;4979846;28;20046;-84
2022/07/30 00:50:20;;;;;;;3.17;1.95;;;;;;;28.60;35.88;98739.88;4963594;28;20049;-84
2022/07/30 00:52:46;;;;;;;2.50;1.88;;;;;;;28.57;35.95;98726.88;4977859;28;20416;-82
2022/07/30 00:55:13;;;;;;;4.85;2.17;;;;;;;28.56;35.93;98725.28;4964283;28;20041;-71
2022/07/30 00:57:39;;;;;;;3.25;2.17;;;;;;;28.51;36.23;98728.66;5013815;28;20123;-72
2022/07/30 01:00:07;;;;;;;6.03;2.15;;;;;;;28.50;36.13;98724.31;4964325;28;20030;-71
2022/07/30 01:02:33;;;;;;;4.07;1.98;;;;;;;28.47;36.08;98718.63;4980246;28;20046;-71
2022/07/30 01:04:58;;;;;;;4.82;2.15;;;;;;;28.47;36.32;98718.63;4996793;28;20374;-71
2022/07/30 01:07:24;;;;;;;2.88;2.00;;;;;;;28.45;36.23;98724.22;4996456;28;20038;-72
2022/07/30 01:09:49;;;;;;;3.28;1.90;;;;;;;28.43;36.48;98720.97;4996524;28;20141;-71
2022/07/30 01:12:16;;;;;;;2.55;1.80;;;;;;;28.40;36.29;98717.91;5013582;28;20491;-71
2022/07/30 01:14:41;;;;;;;4.22;1.90;;;;;;;28.38;36.18;98718.13;4996301;28;20036;-71
2022/07/30 01:17:07;;;;;;;4.18;1.92;;;;;;;28.41;36.12;98720.34;4980059;28;20030;-71
2022/07/30 01:19:54;;;;;;;4.40;2.17;;;;;;;28.36;36.04;98714.88;4963862;28;20128;-71
2022/07/30 01:22:25;;;;;;;4.57;2.10;;;;;;;28.38;36.03;98715.47;4985483;28;20030;-71
2022/07/30 01:24:54;;;;;;;4.70;2.05;;;;;;;28.33;35.78;98710.78;5013476;28;20026;-71
2022/07/30 01:27:20;;;;;;;3.75;2.08;;;;;;;28.38;35.67;98717.34;4979482;28;20515;-72
2022/07/30 01:29:45;;;;;;;4.93;2.08;;;;;;;28.36;35.80;98717.56;4979775;28;20034;-72
2022/07/30 01:32:11;;;;;;;3.92;2.10;;;;;;;28.35;35.67;98721.28;4980406;28;20108;-72
2022/07/30 01:34:36;;;;;;;4.30;2.05;;;;;;;28.30;35.42;98705.88;4963769;28;20064;-70
2022/07/30 01:37:02;;;;;;;5.35;2.25;;;;;;;28.34;35.37;98717.78;4979347;28;20038;-70
2022/07/30 01:39:29;;;;;;;3.10;1.90;;;;;;;28.33;35.38;98715.34;4978978;28;20061;-72
2022/07/30 01:41:54;;;;;;;6.28;2.15;;;;;;;28.33;35.31;98716.16;4976158;28;20164;-70
2022/07/30 01:44:21;;;;;;;5.00;1.90;;;;;;;28.28;35.15;98707.19;4975928;28;20018;-71
2022/07/30 01:46:46;;;;;;;5.95;2.38;;;;;;;28.26;35.17;98706.56;4992405;28;20050;-70
2022/07/30 01:49:12;;;;;;;2.80;1.90;;;;;;;28.28;35.10;98715.22;4976397;28;20034;-70
2022/07/30 01:51:38;;;;;;;3.13;2.33;;;;;;;28.24;35.07;98709.50;4991939;28;20030;-70
2022/07/30 01:54:06;;;;;;;5.35;1.95;;;;;;;28.22;34.92;98700.88;4976188;28;20482;-71
2022/07/30 01:56:31;;;;;;;3.60;2.13;;;;;;;28.21;34.61;98696.56;4975941;28;20137;-71
2022/07/30 01:58:57;;;;;;;2.75;1.90;;;;;;;28.21;35.06;98701.94;4976227;28;20070;-71
2022/07/30 02:01:22;;;;;;;2.80;2.22;;;;;;;28.18;34.87;98709.63;4975873;28;20042;-71
2022/07/30 02:03:48;;;;;;;3.42;2.10;;;;;;;28.17;34.61;98713.38;4975455;28;20054;-71
2022/07/30 02:06:25;;;;;;;6.78;1.92;;;;;;;28.10;34.91;98702.72;4993393;28;20485;-71
2022/07/30 02:08:55;;;;;;;4.35;1.88;;;;;;;28.08;34.74;98699.47;4992433;28;20034;-71
2022/07/30 02:14:07;;;;;;;3.60;1.83;;;;;;;28.09;34.69;98707.28;4978485;28;20049;-70
2022/07/30 02:16:36;;;;;;;8.52;1.95;;;;;;;28.08;34.88;98696.78;4991882;28;20113;-71
2022/07/30 02:19:12;;;;;;;2.72;1.92;;;;;;;28.08;34.79;98691.41;4992227;28;20472;-71
2022/07/30 02:21:40;;;;;;;3.28;2.08;;;;;;;28.09;34.84;98693.88;4975175;28;20129;-71
2022/07/30 02:24:18;;;;;;;;;;;;;;;28.05;34.79;98687.31;4992412;28;20108;-71
2022/07/30 02:26:45;;;;;;;3.03;2.20;;;;;;;28.02;34.61;98684.28;4974800;28;19910;-71
2022/07/30 02:29:10;;;;;;;5.00;2.05;;;;;;;28.00;34.88;98681.84;4975929;28;20026;-71
2022/07/30 02:31:36;;;;;;;7.93;2.22;;;;;;;27.96;34.70;98684.19;4975665;28;20089;-71
2022/07/30 02:34:02;;;;;;;2.72;1.88;;;;;;;27.97;34.67;98688.50;4975720;28;20425;-71
2022/07/30 02:36:28;;;;;;;5.65;1.98;;;;;;;27.99;35.01;98685.59;4992019;28;20504;-71
2022/07/30 02:38:53;;;;;;;6.13;2.10;;;;;;;27.96;34.77;98688.72;4975697;28;20035;-71
2022/07/30 02:41:19;;;;;;;2.40;1.77;;;;;;;27.91;34.77;98678.66;4975196;28;20030;-71
2022/07/30 02:43:45;;;;;;;3.20;2.10;;;;;;;27.88;34.98;98681.81;4975493;28;20032;-71
2022/07/30 02:46:10;;;;;;;3.22;2.08;;;;;;;27.91;34.76;98685.88;4959810;28;20030;-71
2022/07/30 02:48:36;;;;;;;3.58;2.08;;;;;;;27.87;34.87;98688.22;4975375;28;20034;-71
2022/07/30 02:51:01;;;;;;;2.72;1.98;;;;;;;27.83;35.06;98680.84;4975243;28;20041;-71
2022/07/30 02:53:27;;;;;;;4.47;2.13;;;;;;;27.82;35.10;98684.56;4975017;28;20386;-71
2022/07/30 02:55:53;;;;;;;3.65;2.53;;;;;;;27.83;34.96;98689.72;4977262;28;20038;-72
2022/07/30 02:58:20;;;;;;;2.97;2.10;;;;;;;27.82;35.07;98684.56;4982454;28;20400;-71
2022/07/30 03:00:47;;;;;;;3.90;2.20;;;;;;;27.80;34.91;98690.19;4998493;28;20026;-72
2022/07/30 03:03:12;;;;;;;4.00;2.00;;;;;;;27.79;35.33;98681.31;4982266;28;20452;-71
2022/07/30 03:05:38;;;;;;;2.88;2.15;;;;;;;27.75;35.02;98679.31;4998327;28;20061;-72
2022/07/30 03:08:04;;;;;;;3.45;1.92;;;;;;;27.78;35.11;98692.28;4982293;28;20116;-72
2022/07/30 03:10:30;;;;;;;4.40;2.30;;;;;;;27.78;35.26;98698.47;4982098;28;20116;-72
2022/07/30 03:12:56;;;;;;;3.70;2.20;;;;;;;27.79;35.36;98688.56;4982625;28;20488;-71
2022/07/30 03:15:21;;;;;;;3.72;2.13;;;;;;;27.78;35.27;98678.84;4998788;28;20034;-72
2022/07/30 03:17:49;;;;;;;2.50;2.20;;;;;;;27.90;34.80;98685.06;4998169;28;20034;-71
2022/07/30 03:20:20;;;;;;;4.50;2.20;;;;;;;28.14;34.87;98682.44;4966238;28;20109;-75
2022/07/30 03:22:49;;;;;;;4.50;2.70;;;;;;;28.44;34.96;98684.19;4999042;28;20038;-83
2022/07/30 03:25:15;;;;;;;3.83;2.42;;;;;;;28.71;33.99;98686.41;4982004;28;20034;-78
2022/07/30 03:27:41;;;;;;;5.88;2.40;;;;;;;28.98;33.10;98687.47;4981536;28;20124;-78
2022/07/30 03:30:08;;;;;;;6.80;2.58;;;;;;;29.02;32.67;98683.28;4998549;28;20021;-81
2022/07/30 03:32:34;;;;;;;4.95;2.22;;;;;;;28.94;33.05;98696.25;4982422;28;20069;-80
2022/07/30 03:34:59;;;;;;;4.05;2.17;;;;;;;29.22;32.41;98690.97;4982611;28;20401;-79
2022/07/30 03:37:25;;;;;;;3.42;2.20;;;;;;;29.67;31.65;98680.44;4982268;28;20030;-79
2022/07/30 03:39:52;;;;;;;4.80;2.40;;;;;;;30.09;30.67;98688.13;4965847;28;20026;-79
2022/07/30 03:42:18;;;;;;;6.38;2.40;;;;;;;30.46;30.13;98683.06;4982075;28;20080;-78
2022/07/30 03:44:44;;;;;;;4.38;2.40;;;;;;;30.85;29.48;98690.28;4981958;28;20030;-78
2022/07/30 03:47:10;;;;;;;5.88;2.30;;;;;;;31.13;29.22;98689.28;4966043;28;20025;-78
2022/07/30 03:49:35;;;;;;;3.53;2.15;;;;;;;31.51;28.48;98690.22;4982032;28;20116;-74
2022/07/30 03:52:01;;;;;;;3.70;2.10;;;;;;;31.89;27.97;98693.81;4981103;28;20037;-76
2022/07/30 03:54:26;;;;;;;4.82;2.35;;;;;;;32.25;27.48;98690.59;4997149;28;20495;-76
2022/07/30 03:56:52;;;;;;;3.85;2.00;;;;;;;32.61;27.10;98688.91;5006216;28;20038;-74
2022/07/30 03:59:17;;;;;;;4.20;2.00;;;;;;;33.07;26.45;98696.41;4984270;28;20030;-76
2022/07/30 04:01:43;;;;;;;4.07;2.15;;;;;;;33.44;26.18;98694.63;5000446;28;20103;-77
2022/07/30 04:04:09;;;;;;;3.63;2.08;;;;;;;33.86;25.06;98693.63;5013868;28;20053;-76
2022/07/30 04:06:38;;;;;;;7.25;2.20;;;;;;;34.34;24.83;98687.91;4981109;28;20493;-75
2022/07/30 04:09:08;;;;;;;3.05;1.90;;;;;;;34.83;24.55;98694.53;4998049;28;20030;-74
2022/07/30 04:11:33;;;;;;;4.03;2.08;;;;;;;35.25;23.66;98693.25;4997065;28;20032;-75
2022/07/30 04:13:59;;;;;;;4.53;2.40;;;;;;;35.58;23.26;98699.00;5013698;28;20030;-75
2022/07/30 04:16:36;;;;;;;8.98;2.53;;;;;;;36.03;22.64;98697.06;4997422;28;20026;-76
2022/07/30 04:19:01;;;;;;;5.60;2.67;;;;;;;36.49;22.06;98693.88;4998428;28;20037;-75
2022/07/30 04:21:27;;;;;;;6.60;2.10;;;;;;;36.86;21.65;98689.69;4996998;28;20037;-76
2022/07/30 04:23:52;;;;;;;4.13;2.28;;;;;;;37.28;21.03;98695.41;4997389;28;20037;-76
2022/07/30 04:26:18;;;;;;;4.82;2.22;;;;;;;37.64;20.69;98698.38;4997194;28;20499;-77
2022/07/30 04:28:44;;;;;;;5.95;2.20;;;;;;;37.99;20.67;98698.91;4981114;28;20064;-76
2022/07/30 04:31:10;;;;;;;7.60;2.40;;;;;;;38.40;20.21;98702.84;4965145;28;20026;-76
2022/07/30 04:33:35;;;;;;;5.18;2.20;;;;;;;38.75;19.69;98708.72;4994239;28;20397;-75
2022/07/30 04:36:08;;;;;;;10.00;2.65;;;;;;;39.13;19.20;98707.69;4993465;28;20535;-75
2022/07/30 04:38:33;;;;;;;8.38;3.45;;;;;;;39.51;18.77;98696.44;4978055;28;20030;-74
2022/07/30 04:40:59;;;;;;;6.20;2.70;;;;;;;39.84;18.48;98702.47;4993734;28;20049;-75
2022/07/30 04:43:25;;;;;;;7.25;2.50;;;;;;;40.16;17.60;98703.31;4961404;28;20117;-75
2022/07/30 04:45:51;;;;;;;5.35;2.45;;;;;;;40.48;17.63;98710.41;4993948;28;20105;-76
2022/07/30 04:48:16;;;;;;;4.13;2.40;;;;;;;40.84;17.60;98701.16;4977606;28;20521;-75
2022/07/30 04:50:43;;;;;;;3.25;1.95;;;;;;;41.16;17.26;98710.09;4977341;28;20038;-75
2022/07/30 04:53:09;;;;;;;4.38;2.25;;;;;;;41.47;16.61;98706.44;4977549;28;20061;-75
2022/07/30 04:55:34;;;;;;;4.75;2.22;;;;;;;41.80;16.30;98703.22;4961133;28;20512;-74
2022/07/30 04:58:00;;;;;;;7.45;2.30;;;;;;;42.13;15.71;98702.66;4977634;28;20030;-75
2022/07/30 05:00:25;;;;;;;6.65;2.03;;;;;;;42.42;15.46;98699.16;4993337;28;20038;-76
2022/07/30 05:02:51;;;;;;;4.45;2.30;;;;;;;42.70;15.25;98695.97;4992924;28;20050;-74
2022/07/30 05:05:17;;;;;;;6.28;2.33;;;;;;;43.11;14.79;98690.88;4976882;28;20421;-76
2022/07/30 05:07:42;;;;;;;7.57;2.10;;;;;;;43.46;14.73;98693.34;4976393;28;20158;-75
2022/07/30 05:10:09;;;;;;;5.07;2.42;;;;;;;43.85;14.59;98696.72;4977125;28;20576;-75
2022/07/30 05:12:37;;;;;;;10.73;3.55;;;;;;;44.17;14.41;98697.81;4977162;28;20139;-75
2022/07/30 05:15:06;;;;;;;7.60;3.17;;;;;;;44.43;13.88;98705.75;4994130;28;20386;-75
2022/07/30 05:17:32;;;;;;;6.95;3.20;;;;;;;44.75;13.27;98702.44;4976892;28;20038;-75
2022/07/30 05:19:58;;;;;;;7.10;3.00;;;;;;;45.02;13.88;98700.91;4993515;28;20062;-76
2022/07/30 05:22:26;;;;;;;12.60;3.23;;;;;;;45.36;13.42;98708.94;4976520;28;20405;-75
2022/07/30 05:24:52;;;;;;;4.20;2.58;;;;;;;45.56;13.61;98701.69;4976762;28;20065;-76
2022/07/30 05:27:19;;;;;;;4.43;2.47;;;;;;;45.86;12.51;98707.63;4993101;28;20081;-74
2022/07/30 05:29:45;;;;;;;4.63;2.60;;;;;;;45.98;12.48;98715.03;4960731;28;20497;-75
2022/07/30 05:32:10;;;;;;;11.20;2.30;;;;;;;46.16;12.81;98712.75;4976673;28;20065;-75
2022/07/30 05:34:36;;;;;;;5.47;2.60;;;;;;;46.35;12.41;98714.78;4976475;28;20038;-76
2022/07/30 05:37:01;;;;;;;10.43;2.50;;;;;;;46.46;11.97;98715.84;4960451;28;20030;-75
2022/07/30 05:39:27;;;;;;;5.03;2.23;;;;;;;46.67;12.57;98717.53;4976388;28;20037;-76
2022/07/30 05:41:53;;;;;;;4.17;2.10;;;;;;;46.76;12.04;98713.44;4992028;28;20037;-74
2022/07/30 05:44:19;;;;;;;;;;;;;;;46.72;12.01;98715.31;4993079;28;20036;-75
2022/07/30 05:46:44;;;;;;;5.60;2.22;;;;;;;46.90;11.74;98714.91;4992380;28;20311;-75
2022/07/30 05:49:10;;;;;;;6.63;2.30;;;;;;;46.94;12.17;98718.59;4976194;28;20030;-75
2022/07/30 05:51:35;;;;;;;5.87;1.90;;;;;;;46.94;12.03;98722.13;4992394;28;20499;-74
2022/07/30 05:54:01;;;;;;;5.07;2.17;;;;;;;47.03;12.05;98715.59;4976309;28;20116;-75
2022/07/30 05:56:26;;;;;;;10.93;3.20;;;;;;;47.14;12.32;98729.66;4976456;28;20030;-73
2022/07/30 05:58:52;;;;;;;12.37;2.60;;;;;;;47.08;12.30;98726.34;4993265;28;20092;-77
2022/07/30 06:01:17;;;;;;;13.47;6.13;;;;;;;47.11;12.06;98725.63;4993270;28;20096;-84
2022/07/30 06:03:43;;;;;;;27.13;3.93;;;;;;;47.45;12.55;98723.22;4973342;28;20078;-74
2022/07/30 06:06:08;;;;;;;20.50;3.57;;;;;;;47.93;12.14;98722.94;4990945;28;20041;-75
2022/07/30 06:08:34;;;;;;;14.00;2.93;;;;;;;48.33;11.22;98711.41;4990841;28;20058;-73
2022/07/30 06:10:59;;;;;;;14.73;2.53;;;;;;;48.63;11.45;98721.75;4972058;28;20050;-72
2022/07/30 06:13:25;;;;;;;9.23;2.80;;;;;;;48.87;10.98;98722.53;4974549;28;20030;-72
2022/07/30 06:15:50;;;;;;;8.17;2.37;;;;;;;49.06;10.45;98724.34;4990548;28;20042;-71
2022/07/30 06:18:16;;;;;;;38.23;3.23;;;;;;;49.08;11.29;98720.00;4991532;28;20485;-71
2022/07/30 06:20:41;;;;;;;38.67;3.83;;;;;;;48.78;11.18;98719.22;4974052;28;20042;-75
2022/07/30 06:23:07;;;;;;;27.80;3.00;;;;;;;48.60;11.34;98716.16;4974340;28;20026;-71
2022/07/30 06:25:32;;;;;;;18.40;2.67;;;;;;;48.62;11.44;98711.84;4991490;28;20041;-71
2022/07/30 06:27:58;;;;;;;10.00;2.20;;;;;;;48.65;11.28;98716.66;4991637;28;20113;-74
2022/07/30 06:30:23;;;;;;;8.00;2.13;;;;;;;48.75;10.95;98714.41;4973220;28;20038;-71
2022/07/30 06:32:49;;;;;;;9.30;2.30;;;;;;;48.82;11.09;98712.56;4989900;28;20046;-69
2022/07/30 06:35:14;;;;;;;16.87;2.67;;;;;;;48.69;11.74;98714.72;4991351;28;20054;-70
2022/07/30 06:37:41;;;;;;;8.23;2.33;;;;;;;48.65;10.95;98702.78;4973715;28;20780;-70
2022/07/30 06:40:07;;;;;;;11.93;2.60;;;;;;;48.75;11.38;98701.34;4990398;28;20034;-70
2022/07/30 06:42:33;;;;;;;11.10;2.40;;;;;;;48.78;11.28;98699.84;4988090;28;20556;-73
2022/07/30 06:44:58;;;;;;;7.97;2.37;;;;;;;48.83;10.98;98699.50;4991002;28;20061;-71
2022/07/30 06:47:30;;;;;;;6.47;2.30;;;;;;;48.84;11.01;98703.88;4989104;28;20069;-72
2022/07/30 06:49:55;;;;;;;7.22;2.40;;;;;;;48.85;10.58;98692.44;4974461;28;20480;-71
2022/07/30 06:52:21;;;;;;;8.27;2.03;;;;;;;48.83;10.47;98693.97;4973046;28;20026;-71
2022/07/30 06:54:47;;;;;;;5.03;2.03;;;;;;;48.76;10.53;98691.06;4974317;28;20029;-72
2022/07/30 06:57:13;;;;;;;6.80;2.00;;;;;;;48.70;10.58;98688.63;4974072;28;20529;-76
2022/07/30 06:59:38;;;;;;;;;;;;;;;48.56;10.49;98688.41;4958979;28;20125;-73
2022/07/30 07:02:04;;;;;;;;;;;;;;;48.48;10.52;98678.41;4975736;28;20063;-75
2022/07/30 07:04:31;;;;;;;6.33;2.13;;;;;;;48.63;10.40;98682.19;4992111;28;19960;-74
2022/07/30 07:06:56;;;;;;;5.20;2.15;;;;;;;48.66;10.87;98678.66;4992880;28;20412;-70
2022/07/30 07:09:22;;;;;;;5.32;2.20;;;;;;;48.65;10.62;98677.88;5009575;28;20030;-71
2022/07/30 07:11:47;;;;;;;6.53;1.83;;;;;;;48.59;10.56;98676.59;4992787;28;20521;-70
2022/07/30 07:14:13;;;;;;;4.70;2.20;;;;;;;48.57;10.56;98680.91;4974614;28;20062;-71
2022/07/30 07:16:38;;;;;;;15.93;2.20;;;;;;;48.48;10.71;98678.41;4976108;28;20136;-74
2022/07/30 07:19:04;;;;;;;7.20;2.40;;;;;;;48.42;10.65;98679.91;4959930;28;20030;-71
2022/07/30 07:21:29;;;;;;;8.13;2.67;;;;;;;48.39;10.83;98673.09;4975778;28;20128;-74
2022/07/30 07:23:55;;;;;;;5.57;2.23;;;;;;;48.30;10.31;98681.69;4976273;28;20062;-72
2022/07/30 07:26:21;;;;;;;12.32;2.55;;;;;;;48.22;10.59;98682.75;4975996;28;20030;-74
2022/07/30 07:28:46;;;;;;;5.57;2.53;;;;;;;48.17;10.55;98681.09;4975776;28;20034;-72
2022/07/30 07:31:12;;;;;;;6.57;2.23;;;;;;;48.11;10.13;98679.81;4959853;28;20026;-73
2022/07/30 07:33:39;;;;;;;6.23;2.00;;;;;;;48.06;9.65;98674.56;4974933;28;20510;-74
2022/07/30 07:36:05;;;;;;;5.43;1.58;;;;;;;48.02;9.15;98679.22;4992537;28;20049;-73
2022/07/30 07:38:30;;;;;;;7.03;1.40;;;;;;;47.94;9.07;98681.06;4976164;28;20079;-73
2022/07/30 07:40:56;;;;;;;8.00;1.67;;;;;;;47.80;9.44;98672.53;4974342;28;20035;-71
2022/07/30 07:43:21;;;;;;;6.67;1.83;;;;;;;47.74;9.17;98679.53;4962627;28;20030;-72
2022/07/30 07:45:47;;;;;;;9.50;1.40;;;;;;;47.63;8.85;98682.06;4979126;28;20493;-71
2022/07/30 07:48:12;;;;;;;5.23;1.50;;;;;;;47.44;9.48;98675.41;4977830;28;20522;-72
2022/07/30 07:50:38;;;;;;;3.60;1.30;;;;;;;47.29;9.70;98666.03;4963704;28;20029;-73
2022/07/30 07:53:04;;;;;;;3.77;1.10;;;;;;;47.22;9.79;98676.13;4963295;28;20022;-75
2022/07/30 07:55:29;;;;;;;3.70;1.40;;;;;;;47.12;9.95;98672.78;4961145;28;20026;-74
2022/07/30 07:57:55;;;;;;;4.97;1.57;;;;;;;47.07;10.11;98675.06;4962992;28;20123;-72
2022/07/30 08:00:20;;;;;;;5.93;1.40;;;;;;;47.01;9.96;98670.97;5013215;28;20040;-75
2022/07/30 08:02:46;;;;;;;4.83;1.20;;;;;;;46.93;9.94;98665.28;5009822;28;20056;-74
2022/07/30 08:05:12;;;;;;;8.30;1.43;;;;;;;46.89;10.43;98669.91;4979099;28;20475;-75
2022/07/30 08:07:41;;;;;;;4.33;1.40;;;;;;;46.92;10.58;98672.00;4979242;28;20057;-77
2022/07/30 08:10:07;;;;;;;1.95;1.20;;;;;;;46.89;10.80;98664.41;4976830;28;20026;-73
2022/07/30 08:12:32;;;;;;;4.75;1.50;;;;;;;46.84;10.28;98663.88;4979577;28;20022;-71
2022/07/30 08:14:58;;;;;;;2.13;1.20;;;;;;;46.80;10.19;98669.31;4995975;28;20120;-70
2022/07/30 08:17:24;;;;;;;4.18;1.20;;;;;;;46.75;10.65;98675.16;4995759;28;20026;-71
2022/07/30 08:19:50;;;;;;;3.67;1.30;;;;;;;46.65;10.30;98670.16;4963719;28;20045;-75
2022/07/30 08:22:15;;;;;;;2.40;1.40;;;;;;;46.55;10.17;98666.00;4978712;28;20115;-70
2022/07/30 08:24:41;;;;;;;6.78;1.20;;;;;;;46.49;10.21;98665.44;4979772;28;20030;-70
2022/07/30 08:27:06;;;;;;;2.50;1.30;;;;;;;46.47;10.16;98664.22;4993205;28;20037;-71
2022/07/30 08:29:32;;;;;;;5.10;1.60;;;;;;;46.27;11.46;98661.38;4979754;28;20030;-72
2022/07/30 08:31:57;;;;;;;4.63;1.30;;;;;;;46.13;11.00;98661.84;4979456;28;20038;-72
2022/07/30 08:34:23;;;;;;;7.30;1.50;;;;;;;46.07;10.89;98663.25;4979520;28;20026;-72
2022/07/30 08:36:48;;;;;;;4.20;2.13;;;;;;;46.04;11.39;98662.00;4979348;28;20487;-73
2022/07/30 08:39:14;;;;;;;3.57;1.87;;;;;;;45.97;10.89;98664.56;4995491;28;20025;-73
2022/07/30 08:41:40;;;;;;;3.83;1.60;;;;;;;45.82;11.22;98652.41;4978711;28;20093;-70
2022/07/30 08:44:05;;;;;;;4.05;1.75;;;;;;;45.74;11.37;98661.63;5012796;28;20041;-70
2022/07/30 08:46:31;;;;;;;2.07;1.40;;;;;;;45.59;11.27;98654.91;4995241;28;20050;-71
2022/07/30 08:48:57;;;;;;;7.97;1.50;;;;;;;45.40;11.51;98650.06;4979197;28;20041;-71
2022/07/30 08:51:22;;;;;;;6.03;1.70;;;;;;;45.25;12.05;98650.81;4978927;28;20056;-72
2022/07/30 08:53:48;;;;;;;5.53;1.70;;;;;;;45.11;12.46;98637.44;4978033;28;20056;-70
2022/07/30 08:56:14;;;;;;;3.63;1.70;;;;;;;45.04;12.33;98646.31;4994888;28;20420;-70
2022/07/30 08:58:40;;;;;;;4.53;2.00;;;;;;;44.97;12.42;98641.34;4978989;28;20022;-70
2022/07/30 09:01:05;;;;;;;7.13;1.52;;;;;;;44.85;12.25;98627.63;4978851;28;20026;-70
2022/07/30 09:03:31;;;;;;;11.07;1.53;;;;;;;44.80;11.93;98641.63;4994924;28;20555;-70
2022/07/30 09:05:57;;;;;;;3.57;1.30;;;;;;;44.70;12.58;98637.41;4978422;28;20449;-70
2022/07/30 09:08:22;;;;;;;4.17;1.57;;;;;;;44.64;12.38;98632.50;4978833;28;20080;-71
2022/07/30 09:10:48;;;;;;;3.97;1.63;;;;;;;44.50;12.07;98635.59;4994954;28;20124;-69
2022/07/30 09:13:27;;;;;;;2.70;1.47;;;;;;;44.32;12.31;98627.56;4978556;28;20038;-73
2022/07/30 09:15:54;;;;;;;2.65;1.50;;;;;;;44.18;12.28;98622.38;4977108;28;20489;-73
2022/07/30 09:18:31;;;;;;;3.40;1.45;;;;;;;44.08;12.23;98620.91;4977382;28;20140;-74
2022/07/30 09:21:00;;;;;;;2.67;1.45;;;;;;;43.97;12.60;98614.25;4962309;28;20044;-77
2022/07/30 09:23:26;;;;;;;3.67;1.40;;;;;;;43.91;12.35;98616.41;4977776;28;20072;-79
2022/07/30 09:25:52;;;;;;;2.57;1.40;;;;;;;43.82;13.15;98610.22;4978317;28;20042;-71
2022/07/30 09:28:27;;;;;;;7.83;1.80;;;;;;;43.71;13.34;98607.09;5012067;28;20068;-74
2022/07/30 09:30:54;;;;;;;6.43;1.48;;;;;;;43.63;13.42;98612.69;4961949;28;20505;-73
2022/07/30 09:33:40;;;;;;;5.25;1.65;;;;;;;43.50;13.55;98603.63;4977963;28;20041;-75
2022/07/30 09:36:10;;;;;;;3.85;1.75;;;;;;;43.42;13.71;98594.31;5009876;28;20105;-73
2022/07/30 09:38:52;;;;;;;3.33;1.50;;;;;;;43.34;13.58;98590.50;4978411;28;20034;-75
2022/07/30 09:41:24;;;;;;;4.15;1.88;;;;;;;43.28;13.73;98597.34;4962394;28;20034;-74
2022/07/30 09:43:51;;;;;;;4.40;1.50;;;;;;;43.14;13.56;98585.84;4979764;28;20504;-76
2022/07/30 09:46:16;;;;;;;1.90;1.55;;;;;;;43.11;13.86;98592.00;4978343;28;20060;-75
2022/07/30 09:48:42;;;;;;;6.87;1.70;;;;;;;43.05;13.88;98582.38;4978185;28;20065;-79
2022/07/30 09:51:08;;;;;;;5.17;1.60;;;;;;;42.96;13.94;98593.41;4994241;28;20089;-72
2022/07/30 09:53:34;;;;;;;4.53;1.50;;;;;;;42.74;13.42;98589.88;4978169;28;20029;-73
2022/07/30 09:55:59;;;;;;;3.50;1.70;;;;;;;42.54;14.10;98575.00;4959128;28;20034;-73
2022/07/30 09:58:36;;;;;;;6.03;1.80;;;;;;;42.36;13.97;98581.72;4995266;28;20500;-76
2022/07/30 10:01:02;;;;;;;5.95;1.60;;;;;;;42.23;14.38;98576.16;4991229;28;20053;-72
2022/07/30 10:03:27;;;;;;;3.33;1.60;;;;;;;42.18;14.69;98581.84;4977773;28;20556;-71
2022/07/30 10:05:57;;;;;;;6.85;1.90;;;;;;;42.08;15.01;98579.41;4993761;28;20030;-70
2022/07/30 10:08:42;;;;;;;5.05;2.00;;;;;;;42.02;15.36;98575.25;4991891;28;20025;-71
2022/07/30 10:11:29;;;;;;;3.88;1.50;;;;;;;41.95;15.35;98565.59;4992154;28;20075;-71
2022/07/30 10:13:55;;;;;;;2.70;1.60;;;;;;;41.83;15.06;98562.78;4980329;28;20033;-75
2022/07/30 10:16:23;;;;;;;4.68;1.80;;;;;;;41.72;15.63;98565.09;4964628;28;20061;-77
2022/07/30 10:18:49;;;;;;;4.95;1.67;;;;;;;41.63;15.52;98555.25;4977255;28;20045;-77
2022/07/30 10:21:15;;;;;;;2.72;1.70;;;;;;;41.51;15.91;98564.16;4977185;28;20034;-73
2022/07/30 10:23:40;;;;;;;6.20;1.70;;;;;;;41.36;15.73;98551.78;4977759;28;20029;-77
2022/07/30 10:26:06;;;;;;;2.25;1.40;;;;;;;41.29;15.85;98562.44;4961758;28;20053;-78
2022/07/30 10:28:32;;;;;;;3.20;1.60;;;;;;;41.17;15.67;98554.88;4960494;28;20034;-77
2022/07/30 10:30:57;;;;;;;2.30;1.80;;;;;;;41.10;15.42;98544.38;4961612;28;20576;-81
2022/07/30 10:33:24;;;;;;;3.58;1.50;;;;;;;41.02;15.38;98550.69;4961635;28;20053;-81
2022/07/30 10:35:50;;;;;;;5.13;1.65;;;;;;;40.94;15.69;98535.09;4961301;28;20050;-79
2022/07/30 10:38:16;;;;;;;2.97;1.40;;;;;;;40.84;15.70;98527.97;4977699;28;20076;-79
2022/07/30 10:40:51;;;;;;;4.20;1.58;;;;;;;40.74;16.08;98518.19;4977774;28;20037;-78
2022/07/30 10:43:46;;;;;;;3.13;1.60;;;;;;;40.67;15.77;98526.84;4961310;28;20541;-80
2022/07/30 10:46:25;;;;;;;4.43;1.60;;;;;;;40.43;18.41;98527.31;4941433;29;20039;-77
2022/07/30 10:48:51;;;;;;;4.82;1.58;;;;;;;40.30;18.19;98528.25;4917379;29;20040;-86
2022/07/30 10:51:16;;;;;;;5.20;1.73;;;;;;;40.13;17.50;98521.63;4908090;29;20046;-78
2022/07/30 10:53:47;;;;;;;3.22;1.50;;;;;;;40.03;17.74;98521.09;4910083;29;20131;-78
2022/07/30 10:56:17;;;;;;;4.75;1.70;;;;;;;39.95;17.42;98522.69;4904589;29;20047;-74
2022/07/30 10:59:06;;;;;;;2.20;1.42;;;;;;;39.84;17.47;98529.53;4925643;29;20503;-74
2022/07/30 11:01:47;;;;;;;6.05;1.50;;;;;;;39.72;17.08;98516.47;4924289;29;20039;-76
2022/07/30 11:04:28;;;;;;;3.97;1.70;;;;;;;39.58;16.67;98522.03;4941001;29;20126;-73
2022/07/30 11:07:21;;;;;;;3.50;1.40;;;;;;;39.48;16.85;98509.44;4915680;29;20095;-73
2022/07/30 11:09:56;;;;;;;2.72;1.58;;;;;;;39.33;16.37;98505.22;4924204;29;20126;-77
2022/07/30 11:12:40;;;;;;;3.28;1.60;;;;;;;39.21;16.70;98502.25;4906126;29;20070;-76
2022/07/30 11:15:06;;;;;;;4.55;1.73;;;;;;;39.14;16.30;98497.25;4922006;29;20036;-73
2022/07/30 11:17:59;;;;;;;2.97;1.50;;;;;;;38.98;16.52;98504.16;4930229;29;20062;-79
2022/07/30 11:20:26;;;;;;;3.15;1.60;;;;;;;38.88;16.06;98500.53;4936182;29;20454;-83
2022/07/30 11:22:52;;;;;;;3.53;1.40;;;;;;;38.78;16.28;98499.97;4967533;28;20050;-84
2022/07/30 11:25:21;;;;;;;1.87;1.60;;;;;;;38.72;16.50;98502.84;4992330;28;20588;-81
2022/07/30 11:27:49;;;;;;;5.60;1.60;;;;;;;38.63;16.43;98499.22;4994866;28;20268;-80
2022/07/30 11:30:14;;;;;;;2.47;1.40;;;;;;;38.59;16.66;98500.13;4960314;28;20494;-82
2022/07/30 11:32:40;;;;;;;3.65;1.40;;;;;;;38.59;16.98;98500.94;4996381;28;20080;-80
2022/07/30 11:35:20;;;;;;;4.03;1.73;;;;;;;38.51;16.81;98493.50;4963214;28;20042;-86
2022/07/30 11:38:07;;;;;;;2.10;1.35;;;;;;;38.47;17.18;98487.03;4996829;28;20030;-82